createdAt,value
2024-04-30T00:01:53.868Z,14.84
2024-04-30T00:04:40.115Z,14.82
2024-04-30T00:07:26.052Z,14.76
2024-04-30T00:10:12.120Z,14.85
2024-04-30T00:12:57.940Z,14.87
2024-04-30T00:15:43.941Z,14.76
2024-04-30T00:18:29.654Z,14.89
2024-04-30T00:21:15.465Z,14.91
2024-04-30T00:24:01.438Z,14.67
2024-04-30T00:26:48.864Z,14.95
2024-04-30T00:29:34.580Z,14.81
2024-04-30T00:32:20.290Z,14.57
2024-04-30T00:35:06.390Z,14.31
2024-04-30T00:37:52.379Z,14.10
2024-04-30T00:40:38.131Z,14.12
2024-04-30T00:43:24.096Z,14.32
2024-04-30T00:46:10.915Z,13.91
2024-04-30T00:48:56.836Z,13.98
2024-04-30T00:51:43.048Z,13.84
2024-04-30T00:54:28.767Z,13.72
2024-04-30T00:57:15.799Z,13.78
2024-04-30T01:00:01.537Z,13.87
2024-04-30T01:02:48.696Z,13.84
2024-04-30T01:05:34.640Z,13.88
2024-04-30T01:08:20.656Z,13.90
2024-04-30T01:11:08.994Z,13.85
2024-04-30T01:13:55.059Z,13.85
2024-04-30T01:16:40.709Z,13.77
2024-04-30T01:19:26.846Z,13.96
2024-04-30T01:22:12.979Z,13.91
2024-04-30T01:24:58.823Z,13.82
2024-04-30T01:27:45.087Z,13.89
2024-04-30T01:30:31.003Z,13.77
2024-04-30T01:33:17.256Z,13.56
2024-04-30T01:36:03.293Z,13.66
2024-04-30T01:38:49.385Z,13.92
2024-04-30T01:41:35.426Z,13.76
2024-04-30T01:44:21.720Z,13.46
2024-04-30T01:47:07.537Z,13.65
2024-04-30T01:49:53.417Z,13.54
2024-04-30T01:52:42.820Z,13.76
2024-04-30T01:55:28.553Z,13.62
2024-04-30T01:58:15.235Z,13.34
2024-04-30T02:01:01.514Z,13.33
2024-04-30T02:03:47.466Z,13.22
2024-04-30T02:06:33.420Z,13.49
2024-04-30T02:09:18.887Z,13.62
2024-04-30T02:12:04.487Z,13.41
2024-04-30T02:14:50.084Z,13.31
2024-04-30T02:17:35.569Z,13.18
2024-04-30T02:20:21.658Z,13.06
2024-04-30T02:23:07.636Z,13.30
2024-04-30T02:25:54.262Z,13.26
2024-04-30T02:28:41.441Z,13.18
2024-04-30T02:31:45.732Z,13.31
2024-04-30T02:34:31.805Z,13.37
2024-04-30T02:37:17.694Z,13.53
2024-04-30T02:40:04.079Z,13.27
2024-04-30T02:42:49.737Z,13.13
2024-04-30T02:45:35.773Z,13.12
2024-04-30T02:48:22.287Z,13.17
2024-04-30T02:51:07.829Z,12.90
2024-04-30T02:53:53.840Z,12.99
2024-04-30T02:56:40.288Z,12.85
2024-04-30T02:59:26.062Z,12.91
2024-04-30T03:02:11.410Z,12.78
2024-04-30T03:04:57.494Z,12.70
2024-04-30T03:07:43.478Z,12.49
2024-04-30T03:10:29.540Z,12.65
2024-04-30T03:13:15.607Z,12.69
2024-04-30T03:16:04.574Z,12.63
2024-04-30T03:18:50.482Z,12.54
2024-04-30T03:21:36.580Z,12.83
2024-04-30T03:24:22.320Z,12.94
2024-04-30T03:27:08.182Z,13.07
2024-04-30T03:29:54.040Z,12.53
2024-04-30T03:32:39.808Z,12.62
2024-04-30T03:35:27.670Z,12.40
2024-04-30T03:38:14.103Z,12.38
2024-04-30T03:41:00.099Z,12.14
2024-04-30T03:43:46.118Z,12.16
2024-04-30T03:46:32.436Z,12.00
2024-04-30T03:49:18.755Z,12.23
2024-04-30T03:52:05.047Z,12.17
2024-04-30T03:54:50.823Z,11.80
2024-04-30T03:57:36.248Z,12.38
2024-04-30T04:00:21.777Z,12.25
2024-04-30T04:03:07.592Z,12.79
2024-04-30T04:05:53.479Z,12.84
2024-04-30T04:08:39.540Z,12.62
2024-04-30T04:11:44.468Z,12.41
2024-04-30T04:14:49.182Z,12.45
2024-04-30T04:17:35.185Z,12.37
2024-04-30T04:20:26.032Z,12.19
2024-04-30T04:23:12.103Z,12.46
2024-04-30T04:25:57.988Z,12.27
2024-04-30T04:28:43.663Z,12.00
2024-04-30T04:31:29.629Z,11.82
2024-04-30T04:34:15.569Z,11.96
2024-04-30T04:37:01.116Z,12.00
2024-04-30T04:39:47.109Z,12.26
2024-04-30T04:42:33.230Z,11.82
2024-04-30T04:45:19.281Z,11.86
2024-04-30T04:48:05.581Z,11.77
2024-04-30T04:50:51.441Z,11.96
2024-04-30T04:53:38.828Z,12.31
2024-04-30T04:56:24.566Z,12.18
2024-04-30T04:59:10.569Z,12.35
2024-04-30T05:01:55.989Z,12.64
2024-04-30T05:04:42.140Z,12.55
2024-04-30T05:07:28.401Z,12.31
2024-04-30T05:10:14.727Z,12.33
2024-04-30T05:13:00.608Z,12.38
2024-04-30T05:15:46.227Z,12.28
2024-04-30T05:18:32.185Z,12.15
2024-04-30T05:21:18.197Z,12.34
2024-04-30T05:24:03.618Z,12.46
2024-04-30T05:26:49.479Z,12.47
2024-04-30T05:29:35.522Z,12.46
2024-04-30T05:32:21.616Z,12.71
2024-04-30T05:35:08.751Z,12.65
2024-04-30T05:37:54.587Z,12.44
2024-04-30T05:40:40.760Z,12.47
2024-04-30T05:43:27.220Z,12.51
2024-04-30T05:46:13.303Z,13.06
2024-04-30T05:48:59.553Z,12.81
2024-04-30T05:51:45.063Z,12.98
2024-04-30T05:54:31.100Z,13.01
2024-04-30T05:57:17.269Z,13.13
2024-04-30T06:00:03.315Z,13.14
2024-04-30T06:02:50.232Z,13.20
2024-04-30T06:05:36.033Z,13.02
2024-04-30T06:08:21.941Z,13.45
2024-04-30T06:11:09.714Z,13.53
2024-04-30T06:13:56.590Z,13.49
2024-04-30T06:16:42.711Z,13.47
2024-04-30T06:19:28.792Z,13.39
2024-04-30T06:22:14.990Z,13.36
2024-04-30T06:25:00.529Z,13.22
2024-04-30T06:27:47.837Z,13.24
2024-04-30T06:30:33.793Z,13.39
2024-04-30T06:33:20.010Z,13.65
2024-04-30T06:36:06.672Z,13.88
2024-04-30T06:38:52.820Z,14.35
2024-04-30T06:41:38.904Z,14.41
2024-04-30T06:44:25.352Z,14.17
2024-04-30T06:47:11.425Z,13.90
2024-04-30T06:49:57.566Z,14.38
2024-04-30T06:52:43.630Z,14.34
2024-04-30T06:55:29.670Z,14.72
2024-04-30T06:58:15.988Z,14.26
2024-04-30T07:01:02.067Z,14.38
2024-04-30T07:03:47.974Z,14.64
2024-04-30T07:06:35.792Z,14.75
2024-04-30T07:09:21.848Z,15.39
2024-04-30T07:12:09.136Z,15.21
2024-04-30T07:14:55.115Z,15.62
2024-04-30T07:17:41.538Z,15.57
2024-04-30T07:20:27.495Z,16.13
2024-04-30T07:23:13.431Z,16.19
2024-04-30T07:25:59.667Z,16.37
2024-04-30T07:28:46.014Z,16.64
2024-04-30T07:31:31.872Z,16.80
2024-04-30T07:34:18.691Z,16.82
2024-04-30T07:37:05.319Z,16.86
2024-04-30T07:39:51.757Z,16.98
2024-04-30T07:42:37.548Z,17.25
2024-04-30T07:45:24.685Z,17.31
2024-04-30T07:48:10.429Z,17.50
2024-04-30T07:50:56.926Z,17.64
2024-04-30T07:53:42.698Z,17.70
2024-04-30T07:56:28.439Z,17.65
2024-04-30T07:59:14.367Z,18.02
2024-04-30T08:02:00.352Z,18.26
2024-04-30T08:04:46.627Z,18.28
2024-04-30T08:07:32.224Z,18.54
2024-04-30T08:10:19.046Z,18.91
2024-04-30T08:13:05.391Z,18.75
2024-04-30T08:15:51.218Z,18.77
2024-04-30T08:18:36.767Z,19.04
2024-04-30T08:21:22.278Z,19.04
2024-04-30T08:24:08.411Z,19.00
2024-04-30T08:26:54.522Z,19.21
2024-04-30T08:29:40.142Z,19.38
2024-04-30T08:32:26.411Z,19.68
2024-04-30T08:35:12.633Z,19.77
2024-04-30T08:38:01.250Z,20.00
2024-04-30T08:40:48.233Z,20.36
2024-04-30T08:43:34.751Z,20.70
2024-04-30T08:46:20.955Z,20.68
2024-04-30T08:49:07.617Z,21.00
2024-04-30T08:51:54.689Z,21.27
2024-04-30T08:54:43.499Z,21.49
2024-04-30T08:57:29.565Z,21.85
2024-04-30T09:00:16.127Z,22.14
2024-04-30T09:03:04.685Z,22.10
2024-04-30T09:05:53.592Z,21.93
2024-04-30T09:08:39.141Z,22.25
2024-04-30T09:11:25.116Z,22.15
2024-04-30T09:14:10.914Z,22.31
2024-04-30T09:16:57.007Z,22.74
2024-04-30T09:19:42.788Z,23.19
2024-04-30T09:22:28.882Z,23.64
2024-04-30T09:25:16.472Z,23.44
2024-04-30T09:28:02.803Z,23.32
2024-04-30T09:30:59.749Z,23.64
2024-04-30T09:33:57.259Z,24.03
2024-04-30T09:36:43.179Z,24.30
2024-04-30T09:39:30.764Z,24.76
2024-04-30T09:42:17.256Z,24.88
2024-04-30T09:45:04.186Z,25.36
2024-04-30T09:47:51.666Z,25.48
2024-04-30T09:50:38.922Z,25.66
2024-04-30T09:53:26.594Z,25.39
2024-04-30T09:56:18.043Z,26.10
2024-04-30T09:59:04.000Z,25.91
2024-04-30T10:01:50.416Z,25.66
2024-04-30T10:04:37.350Z,26.16
2024-04-30T10:07:24.886Z,27.19
2024-04-30T10:10:11.063Z,27.85
2024-04-30T10:13:16.747Z,27.21
2024-04-30T10:16:15.961Z,28.38
2024-04-30T10:19:03.928Z,28.32
2024-04-30T10:21:49.921Z,27.98
2024-04-30T10:24:40.034Z,27.83
2024-04-30T10:27:26.049Z,27.90
2024-04-30T10:30:11.963Z,27.42
2024-04-30T10:32:58.317Z,28.20
2024-04-30T10:35:44.665Z,27.72
2024-04-30T10:38:30.759Z,27.95
2024-04-30T10:41:17.232Z,27.98
2024-04-30T10:44:04.835Z,28.07
2024-04-30T10:46:51.135Z,29.11
2024-04-30T10:49:37.275Z,29.73
2024-04-30T10:52:23.475Z,30.62
2024-04-30T10:55:12.393Z,31.02
2024-04-30T10:57:59.756Z,28.75
2024-04-30T11:00:46.504Z,28.44
2024-04-30T11:03:34.800Z,28.16
2024-04-30T11:06:20.557Z,30.27
2024-04-30T11:09:07.674Z,30.09
2024-04-30T11:12:02.745Z,29.45
2024-04-30T11:14:48.952Z,29.04
2024-04-30T11:17:34.642Z,29.96
2024-04-30T11:20:20.590Z,29.41
2024-04-30T11:23:06.505Z,29.60
2024-04-30T11:25:52.500Z,29.49
2024-04-30T11:28:38.377Z,29.45
2024-04-30T11:31:24.528Z,29.50
2024-04-30T11:34:10.209Z,29.51
2024-04-30T11:36:56.285Z,29.12
2024-04-30T11:39:42.243Z,29.73
2024-04-30T11:42:34.399Z,30.83
2024-04-30T11:45:27.297Z,30.61
2024-04-30T11:48:13.700Z,29.50
2024-04-30T11:51:03.331Z,30.01
2024-04-30T11:53:49.755Z,28.65
2024-04-30T11:56:35.502Z,28.87
2024-04-30T11:59:22.788Z,27.91
2024-04-30T12:02:08.883Z,27.97
2024-04-30T12:04:55.207Z,28.18
2024-04-30T12:07:41.437Z,28.72
2024-04-30T12:10:27.959Z,28.39
2024-04-30T12:13:13.948Z,29.13
2024-04-30T12:15:59.864Z,30.59
2024-04-30T12:18:45.994Z,28.99
2024-04-30T12:21:32.198Z,30.07
2024-04-30T12:24:17.904Z,30.74
2024-04-30T12:27:04.748Z,30.16
2024-04-30T12:29:50.811Z,29.54
2024-04-30T12:32:36.774Z,29.88
2024-04-30T12:35:23.828Z,30.72
2024-04-30T12:38:09.833Z,30.25
2024-04-30T12:40:56.694Z,30.31
2024-04-30T12:43:42.966Z,30.76
2024-04-30T12:46:30.571Z,30.20
2024-04-30T12:49:17.158Z,30.34
2024-04-30T12:52:04.247Z,29.50
2024-04-30T12:54:50.279Z,30.07
2024-04-30T12:57:36.397Z,30.62
2024-04-30T13:00:24.230Z,30.67
2024-04-30T13:03:10.373Z,30.31
2024-04-30T13:05:56.706Z,30.10
2024-04-30T13:08:42.858Z,30.42
2024-04-30T13:11:28.780Z,29.68
2024-04-30T13:14:15.523Z,30.40
2024-04-30T13:17:01.680Z,30.27
2024-04-30T13:19:47.814Z,28.90
2024-04-30T13:22:34.062Z,29.10
2024-04-30T13:25:19.993Z,29.43
2024-04-30T13:28:06.499Z,29.62
2024-04-30T13:30:52.651Z,29.37
2024-04-30T13:33:38.681Z,29.57
2024-04-30T13:36:25.448Z,29.52
2024-04-30T13:39:11.789Z,29.77
2024-04-30T13:41:58.185Z,30.77
2024-04-30T13:44:44.191Z,30.13
2024-04-30T13:47:30.376Z,30.45
2024-04-30T13:50:16.457Z,30.85
2024-04-30T13:53:02.341Z,30.04
2024-04-30T13:55:48.524Z,29.68
2024-04-30T13:58:34.613Z,30.86
2024-04-30T14:01:20.934Z,30.46
2024-04-30T14:04:07.239Z,30.34
2024-04-30T14:06:53.466Z,30.11
2024-04-30T14:09:40.338Z,30.52
2024-04-30T14:12:27.733Z,30.30
2024-04-30T14:15:14.153Z,30.50
2024-04-30T14:18:00.221Z,31.01
2024-04-30T14:20:46.383Z,29.85
2024-04-30T14:23:34.841Z,30.03
2024-04-30T14:26:21.142Z,29.91
2024-04-30T14:29:10.887Z,30.49
2024-04-30T14:31:56.890Z,29.81
2024-04-30T14:34:43.090Z,30.24
2024-04-30T14:37:29.056Z,30.06
2024-04-30T14:40:14.906Z,29.99
2024-04-30T14:43:00.981Z,29.22
2024-04-30T14:45:47.283Z,29.05
2024-04-30T14:48:33.845Z,29.10
2024-04-30T14:51:20.319Z,29.10
2024-04-30T14:54:07.237Z,29.74
2024-04-30T14:56:55.401Z,29.67
2024-04-30T14:59:41.944Z,29.87
2024-04-30T15:02:27.966Z,29.78
2024-04-30T15:05:13.920Z,29.96
2024-04-30T15:07:59.906Z,29.60
2024-04-30T15:10:46.233Z,28.65
2024-04-30T15:13:32.376Z,29.43
2024-04-30T15:16:21.042Z,29.39
2024-04-30T15:19:07.223Z,29.29
2024-04-30T15:21:53.240Z,29.15
2024-04-30T15:24:39.255Z,29.07
2024-04-30T15:27:25.313Z,28.68
2024-04-30T15:30:14.617Z,28.88
2024-04-30T15:33:00.586Z,28.66
2024-04-30T15:35:46.667Z,29.07
2024-04-30T15:38:32.699Z,28.35
2024-04-30T15:41:22.884Z,27.54
2024-04-30T15:44:09.106Z,27.21
2024-04-30T15:46:55.299Z,26.93
2024-04-30T15:49:41.725Z,26.62
2024-04-30T15:52:27.802Z,26.89
2024-04-30T15:55:13.888Z,26.63
2024-04-30T15:57:59.786Z,26.97
2024-04-30T16:00:46.018Z,26.89
2024-04-30T16:03:32.457Z,27.00
2024-04-30T16:06:19.979Z,26.93
2024-04-30T16:09:08.252Z,27.19
2024-04-30T16:11:54.339Z,26.91
2024-04-30T16:14:40.566Z,26.81
2024-04-30T16:17:26.887Z,26.45
2024-04-30T16:20:12.829Z,26.35
2024-04-30T16:22:58.835Z,26.34
2024-04-30T16:25:45.227Z,26.24
2024-04-30T16:28:31.730Z,26.25
2024-04-30T16:31:18.463Z,26.36
2024-04-30T16:34:04.471Z,26.00
2024-04-30T16:36:57.747Z,26.13
2024-04-30T16:39:43.931Z,26.08
2024-04-30T16:42:31.306Z,25.91
2024-04-30T16:45:17.154Z,25.89
2024-04-30T16:48:03.071Z,26.03
2024-04-30T16:50:48.853Z,26.09
2024-04-30T16:53:34.691Z,25.92
2024-04-30T16:56:20.656Z,26.05
2024-04-30T16:59:06.840Z,26.01
2024-04-30T17:01:54.399Z,25.83
2024-04-30T17:04:40.336Z,25.96
2024-04-30T17:07:26.250Z,25.89
2024-04-30T17:10:12.521Z,25.61
2024-04-30T17:12:58.892Z,25.72
2024-04-30T17:15:44.794Z,25.62
2024-04-30T17:18:31.372Z,25.67
2024-04-30T17:21:19.732Z,25.52
2024-04-30T17:24:05.753Z,25.42
2024-04-30T17:26:52.501Z,25.52
2024-04-30T17:29:43.172Z,25.52
2024-04-30T17:32:30.003Z,25.26
2024-04-30T17:35:15.984Z,25.17
2024-04-30T17:38:01.841Z,25.23
2024-04-30T17:40:47.856Z,25.25
2024-04-30T17:43:34.150Z,25.18
2024-04-30T17:46:20.774Z,25.02
2024-04-30T17:49:11.654Z,24.98
2024-04-30T17:51:57.435Z,24.86
2024-04-30T17:54:43.761Z,24.71
2024-04-30T17:57:29.561Z,24.66
2024-04-30T18:00:15.916Z,24.52
2024-04-30T18:03:01.709Z,24.05
2024-04-30T18:05:47.636Z,24.33
2024-04-30T18:08:33.758Z,24.29
2024-04-30T18:11:19.745Z,24.27
2024-04-30T18:14:05.943Z,24.09
2024-04-30T18:16:52.338Z,24.03
2024-04-30T18:19:38.582Z,24.00
2024-04-30T18:22:24.635Z,23.91
2024-04-30T18:25:10.690Z,23.90
2024-04-30T18:27:56.733Z,23.64
2024-04-30T18:30:42.949Z,23.72
2024-04-30T18:33:29.357Z,23.64
2024-04-30T18:36:15.494Z,23.57
2024-04-30T18:39:01.818Z,23.53
2024-04-30T18:41:47.662Z,23.50
2024-04-30T18:44:34.951Z,23.46
2024-04-30T18:47:21.368Z,23.37
2024-04-30T18:50:07.595Z,23.31
2024-04-30T18:52:53.780Z,23.12
2024-04-30T18:55:39.670Z,23.12
2024-04-30T18:58:25.765Z,23.17
2024-04-30T19:01:11.939Z,23.14
2024-04-30T19:03:58.129Z,23.03
2024-04-30T19:06:45.875Z,23.03
2024-04-30T19:09:31.672Z,23.03
2024-04-30T19:12:17.865Z,22.97
2024-04-30T19:15:04.941Z,22.95
2024-04-30T19:17:50.760Z,22.83
2024-04-30T19:20:38.343Z,22.78
2024-04-30T19:23:25.435Z,22.73
2024-04-30T19:26:15.509Z,22.72
2024-04-30T19:29:01.670Z,22.62
2024-04-30T19:31:49.404Z,22.60
2024-04-30T19:34:35.495Z,22.43
2024-04-30T19:37:21.644Z,22.37
2024-04-30T19:40:08.411Z,22.34
2024-04-30T19:42:54.752Z,22.22
2024-04-30T19:45:41.509Z,22.07
2024-04-30T19:48:30.349Z,22.06
2024-04-30T19:51:22.672Z,22.03
2024-04-30T19:54:09.011Z,21.81
2024-04-30T19:56:55.036Z,21.64
2024-04-30T19:59:41.751Z,21.29
2024-04-30T20:02:28.028Z,21.71
2024-04-30T20:05:14.218Z,21.67
2024-04-30T20:08:00.871Z,21.45
2024-04-30T20:10:47.321Z,21.35
2024-04-30T20:13:35.461Z,20.87
2024-04-30T20:16:23.956Z,20.99
2024-04-30T20:19:10.955Z,20.93
2024-04-30T20:21:56.697Z,21.01
2024-04-30T20:24:42.487Z,20.91
2024-04-30T20:27:28.882Z,21.03
2024-04-30T20:30:14.621Z,20.89
2024-04-30T20:33:01.382Z,20.72
2024-04-30T20:35:47.604Z,20.67
2024-04-30T20:38:37.396Z,20.75
2024-04-30T20:41:23.431Z,20.59
2024-04-30T20:44:09.475Z,20.60
2024-04-30T20:46:55.331Z,20.58
2024-04-30T20:49:43.303Z,20.60
2024-04-30T20:52:29.646Z,20.48
2024-04-30T20:55:15.714Z,20.25
2024-04-30T20:58:01.882Z,20.24
2024-04-30T21:00:52.280Z,20.19
2024-04-30T21:03:38.310Z,20.08
2024-04-30T21:06:24.388Z,20.02
2024-04-30T21:09:13.588Z,19.88
2024-04-30T21:11:59.345Z,20.02
2024-04-30T21:14:44.969Z,20.15
2024-04-30T21:17:31.121Z,20.16
2024-04-30T21:20:17.436Z,20.07
2024-04-30T21:23:03.216Z,19.71
2024-04-30T21:25:48.887Z,19.61
2024-04-30T21:28:37.448Z,19.62
2024-04-30T21:31:23.266Z,19.54
2024-04-30T21:34:09.707Z,19.44
2024-04-30T21:36:57.429Z,19.51
2024-04-30T21:39:45.450Z,19.50
2024-04-30T21:42:31.508Z,19.36
2024-04-30T21:45:17.960Z,19.34
2024-04-30T21:48:03.695Z,19.30
2024-04-30T21:50:49.802Z,19.23
2024-04-30T21:53:37.960Z,19.23
2024-04-30T21:56:29.892Z,19.26
2024-04-30T21:59:15.758Z,19.02
2024-04-30T22:02:01.968Z,18.75
2024-04-30T22:04:47.876Z,18.78
2024-04-30T22:07:34.549Z,18.84
2024-04-30T22:10:20.512Z,18.78
2024-04-30T22:13:06.134Z,18.71
2024-04-30T22:15:52.095Z,18.44
2024-04-30T22:18:38.309Z,18.36
2024-04-30T22:21:25.489Z,18.26
2024-04-30T22:24:11.600Z,18.35
2024-04-30T22:26:57.308Z,18.36
2024-04-30T22:29:43.268Z,18.46
2024-04-30T22:32:29.571Z,18.55
2024-04-30T22:35:16.634Z,18.57
2024-04-30T22:38:02.728Z,18.29
2024-04-30T22:40:48.494Z,17.96
2024-04-30T22:43:34.893Z,18.14
2024-04-30T22:46:20.586Z,18.26
2024-04-30T22:49:06.331Z,18.21
2024-04-30T22:51:52.427Z,18.02
2024-04-30T22:54:38.417Z,18.05
2024-04-30T22:57:24.218Z,17.85
2024-04-30T23:00:11.728Z,18.04
2024-04-30T23:03:00.783Z,17.98
2024-04-30T23:05:47.585Z,17.98
2024-04-30T23:08:33.865Z,17.70
2024-04-30T23:11:20.080Z,17.62
2024-04-30T23:14:06.062Z,17.40
2024-04-30T23:16:51.586Z,17.07
2024-04-30T23:19:37.125Z,17.26
2024-04-30T23:22:24.955Z,17.15
2024-04-30T23:25:11.054Z,17.18
2024-04-30T23:27:56.800Z,16.76
2024-04-30T23:30:42.849Z,17.25
2024-04-30T23:33:28.586Z,17.31
2024-04-30T23:36:14.465Z,17.11
2024-04-30T23:38:59.928Z,17.30
2024-04-30T23:41:45.513Z,17.24
2024-04-30T23:44:31.055Z,17.08
2024-04-30T23:47:16.879Z,17.20
2024-04-30T23:50:03.652Z,17.20
2024-04-30T23:52:49.367Z,17.27
2024-04-30T23:55:35.386Z,17.27
2024-04-30T23:58:20.775Z,17.04
